Time;durP1;ratioP1;P1;durP2;ratioP2;P2;SDS_P1;SDS_P2;PMS_P1;PMS_P2;Temp;Humidity;BMP_temperature;BMP_pressure;BME280_temperature;BME280_humidity;BME280_pressure;Samples;Min_cycle;Max_cycle;Signal;HPM_P1;HPM_P2
2021/05/01 00:01:44;;;;;;;37.73;25.60;;;;;;;7.13;63.58;99923.35;126097;1108;102944;-83
2021/05/01 00:05:52;;;;;;;36.93;25.73;;;;;;;7.12;63.81;99920.80;126175;1108;103624;-83
2021/05/01 00:14:51;;;;;;;36.47;26.37;;;;;;;7.05;63.71;99922.69;124678;1117;102975;-82
2021/05/01 00:35:28;;;;;;;40.00;28.63;;;;;;;6.89;64.90;99923.92;124939;1113;103147;-82
2021/05/01 00:48:53;;;;;;;35.77;25.43;;;;;;;7.01;65.08;99933.17;126650;1093;103033;-83
2021/05/01 00:53:35;;;;;;;34.80;24.80;;;;;;;7.07;64.84;99939.06;125286;1110;103161;-83
2021/05/01 01:06:58;;;;;;;40.95;26.55;;;;;;;7.35;64.54;99908.13;123950;1127;102974;-82
2021/05/01 01:14:45;;;;;;;35.37;25.73;;;;;;;7.49;64.44;99931.14;126716;1092;103091;-82
2021/05/01 01:19:24;;;;;;;31.43;23.03;;;;;;;7.51;64.51;99935.41;126065;1108;103192;-82
2021/05/01 01:23:20;;;;;;;32.13;23.50;;;;;;;7.57;64.46;99934.42;124969;1113;103405;-83
2021/05/01 01:45:19;;;;;;;31.67;23.80;;;;;;;7.80;64.45;99967.58;124778;1117;103006;-80
2021/05/01 01:50:00;;;;;;;31.90;23.43;;;;;;;7.83;64.25;99968.35;124651;1117;103000;-81
2021/05/01 02:02:15;;;;;;;;;;;;;;;;;;;;;
2021/05/01 02:10:09;;;;;;;37.38;31.35;;;;;;;7.95;64.51;99966.34;126682;1092;103241;-82
2021/05/01 02:14:18;;;;;;;35.07;26.90;;;;;;;8.03;64.57;99960.05;126217;1107;102937;-82
2021/05/01 02:18:33;;;;;;;32.67;25.13;;;;;;;8.07;64.61;99966.00;125263;1111;102946;-82
2021/05/01 02:22:47;;;;;;;33.17;26.43;;;;;;;8.11;64.56;99967.65;124766;1116;103285;-81
2021/05/01 02:26:49;;;;;;;34.73;25.10;;;;;;;8.15;64.17;99956.28;126374;1093;103006;-82
2021/05/01 02:31:11;;;;;;;31.83;24.70;;;;;;;8.19;64.20;99965.69;126112;1107;102959;-83
2021/05/01 02:39:33;;;;;;;33.00;24.20;;;;;;;8.19;64.45;99947.50;125308;1111;102968;-82
2021/05/01 02:44:12;;;;;;;31.10;23.60;;;;;;;8.21;64.38;99957.84;124417;1120;103075;-80
2021/05/01 02:48:32;;;;;;;;;;;;;;;;;;;;;
2021/05/01 03:00:38;;;;;;;34.33;26.27;;;;;;;8.26;64.63;99929.98;126582;1093;102939;-82
2021/05/01 03:04:55;;;;;;;40.03;28.00;;;;;;;8.28;64.50;99944.67;126182;1107;103014;-81
2021/05/01 03:09:03;;;;;;;31.87;25.03;;;;;;;8.23;64.72;99956.06;125244;1111;103178;-83
2021/05/01 03:30:31;;;;;;;31.70;24.63;;;;;;;8.24;64.90;99947.37;126725;1093;102936;-82
2021/05/01 03:34:39;;;;;;;32.63;23.33;;;;;;;8.23;64.92;99962.11;126274;1104;101673;-83
2021/05/01 03:39:01;;;;;;;;;;;;;;;;;;;;;
2021/05/01 03:43:02;;;;;;;30.30;23.00;;;;;;;8.32;64.94;99945.43;125227;1106;102954;-81
2021/05/01 03:47:10;;;;;;;30.15;23.35;;;;;;;8.37;64.84;99930.59;124944;1114;102125;-82
2021/05/01 03:52:05;;;;;;;30.87;23.10;;;;;;;8.38;64.75;99917.55;124357;1120;102990;-80
2021/05/01 04:12:51;;;;;;;31.67;24.53;;;;;;;8.43;65.35;99881.88;126078;1102;103126;-83
2021/05/01 04:17:27;;;;;;;;;;;;;;;;;;;;;
2021/05/01 04:21:08;;;;;;;34.30;25.30;;;;;;;8.44;65.16;99903.55;124654;1109;103352;-82
2021/05/01 04:25:55;;;;;;;;;;;;;;;;;;;;;
2021/05/01 04:29:57;;;;;;;;;;;;;;;8.44;65.70;99909.59;126330;1104;102979;-82
2021/05/01 04:34:07;;;;;;;32.70;25.10;;;;;;;8.47;65.48;99930.30;126099;1108;103011;-83
2021/05/01 04:51:42;;;;;;;28.70;22.00;;;;;;;8.64;65.42;99940.21;123990;1127;103231;-80
2021/05/01 04:55:44;;;;;;;;;;;;;;;;;;;;;
2021/05/01 05:04:21;;;;;;;27.97;21.47;;;;;;;8.86;65.22;99936.97;126778;1091;103079;-81
2021/05/01 05:08:09;;;;;;;34.47;25.77;;;;;;;8.90;65.32;99934.22;126209;1108;101655;-82
2021/05/01 05:16:40;;;;;;;;;;;;;;;;;;;;;
2021/05/01 05:20:36;;;;;;;23.73;18.67;;;;;;;8.94;64.90;99933.22;126766;1091;102755;-81
2021/05/01 05:24:46;;;;;;;24.23;17.80;;;;;;;8.92;65.31;99936.77;126184;1107;102963;-82
2021/05/01 05:28:54;;;;;;;21.27;17.17;;;;;;;8.90;65.27;99939.42;125304;1103;103204;-82
2021/05/01 05:33:03;;;;;;;23.20;17.27;;;;;;;8.84;65.10;99939.62;125287;1111;103100;-82
2021/05/01 05:37:09;;;;;;;;;;;;;;;;;;;;;
2021/05/01 05:42:26;;;;;;;22.53;18.00;;;;;;;8.85;65.32;99936.13;124552;1120;102927;-82
2021/05/01 05:50:21;;;;;;;;;;;;;;;8.96;65.04;99947.03;123754;1129;102971;-82
2021/05/01 06:02:23;;;;;;;24.87;19.00;;;;;;;9.07;65.13;99962.33;126189;1108;103100;-81
2021/05/01 06:15:23;;;;;;;22.30;17.55;;;;;;;9.21;64.58;99975.77;124402;1120;101231;-83
2021/05/01 06:19:35;;;;;;;22.17;17.33;;;;;;;9.28;64.53;99976.42;126894;1090;102928;-82
2021/05/01 06:23:43;;;;;;;22.27;16.90;;;;;;;9.40;64.48;99973.44;126124;1107;102946;-83
2021/05/01 06:28:08;;;;;;;20.53;16.80;;;;;;;9.54;64.24;99979.07;125351;1105;103025;-82
2021/05/01 06:52:45;;;;;;;24.87;18.40;;;;;;;9.77;63.41;100001.75;127626;1092;100692;-83
2021/05/01 06:55:34;;;;;;;23.10;18.17;;;;;;;9.78;63.21;100010.42;127616;1104;100868;-83
2021/05/01 06:58:22;;;;;;;21.97;18.13;;;;;;;9.77;63.04;100006.96;127627;1104;101928;-83
2021/05/01 07:01:11;;;;;;;24.83;19.30;;;;;;;9.78;63.27;100003.45;127561;1104;100881;-83
2021/05/01 07:04:00;;;;;;;25.83;19.47;;;;;;;9.83;63.38;100000.69;127608;1104;101152;-83
2021/05/01 07:06:48;;;;;;;26.17;20.23;;;;;;;9.87;63.25;100003.13;127609;1104;100955;-83
2021/05/01 07:09:36;;;;;;;25.07;19.00;;;;;;;9.94;62.77;100006.41;127625;1104;100849;-83
2021/05/01 07:12:25;;;;;;;23.97;20.10;;;;;;;10.00;62.70;100008.80;127590;1104;100817;-83
2021/05/01 07:15:16;;;;;;;26.60;21.57;;;;;;;10.05;62.48;100011.23;127580;1104;100890;-83
2021/05/01 07:18:03;;;;;;;28.23;22.13;;;;;;;10.07;62.43;100006.86;127601;1104;100741;-83
2021/05/01 07:20:50;;;;;;;28.28;21.48;;;;;;;10.11;62.20;100016.27;127631;1104;100683;-83
2021/05/01 07:23:37;;;;;;;23.97;20.27;;;;;;;10.20;62.71;100019.39;127603;1104;101097;-83
2021/05/01 07:26:25;;;;;;;23.58;20.25;;;;;;;10.31;62.65;100020.83;127582;1104;102314;-83
2021/05/01 07:29:12;;;;;;;26.57;21.70;;;;;;;10.40;62.21;100017.88;127541;1104;101189;-83
2021/05/01 07:32:01;;;;;;;26.30;21.45;;;;;;;10.40;62.31;100010.06;127635;1104;101039;-84
2021/05/01 07:34:51;;;;;;;28.03;21.67;;;;;;;10.46;61.96;100009.87;127587;1104;100898;-83
2021/05/01 07:37:40;;;;;;;23.23;19.90;;;;;;;10.57;62.00;100010.31;127616;1104;101147;-83
2021/05/01 07:40:30;;;;;;;26.77;20.40;;;;;;;10.70;61.54;100008.13;127617;1104;101910;-83
2021/05/01 07:43:18;;;;;;;26.60;21.70;;;;;;;10.81;61.51;100009.45;127540;1104;100965;-83
2021/05/01 07:46:08;;;;;;;24.55;20.15;;;;;;;10.86;61.06;100002.30;127431;1105;100815;-83
2021/05/01 07:48:57;;;;;;;23.40;19.10;;;;;;;10.95;60.89;100000.23;127630;1104;100714;-82
2021/05/01 07:51:44;;;;;;;22.70;19.17;;;;;;;11.02;60.68;100001.72;127593;1104;100946;-83
2021/05/01 07:54:33;;;;;;;22.67;18.67;;;;;;;11.08;60.51;100004.94;127575;1104;101599;-83
2021/05/01 07:57:20;;;;;;;23.03;18.60;;;;;;;11.13;60.47;100000.42;127560;1104;100900;-83
2021/05/01 08:00:07;;;;;;;20.97;17.03;;;;;;;11.10;60.15;100013.56;127594;1104;100684;-83
2021/05/01 08:03:15;;;;;;;18.15;15.08;;;;;;;11.13;60.17;99999.53;127603;1105;101389;-83
2021/05/01 08:06:02;;;;;;;17.18;14.10;;;;;;;11.19;60.09;99996.72;127413;1104;100801;-83
2021/05/01 08:08:52;;;;;;;13.85;12.35;;;;;;;11.22;59.72;99993.13;127605;1104;102275;-83
2021/05/01 08:11:38;;;;;;;14.27;12.43;;;;;;;11.25;59.61;99993.86;127412;1104;100657;-83
2021/05/01 08:14:26;;;;;;;12.58;11.28;;;;;;;11.30;59.37;100002.34;127615;1104;100825;-83
2021/05/01 08:17:13;;;;;;;12.55;11.00;;;;;;;11.34;59.13;100003.95;127590;1104;101158;-83
2021/05/01 08:20:00;;;;;;;15.03;13.13;;;;;;;11.39;59.19;99990.71;127513;1104;101080;-83
2021/05/01 08:22:47;;;;;;;15.05;13.45;;;;;;;11.45;59.16;99996.53;127351;1105;101241;-83
2021/05/01 08:25:34;;;;;;;22.55;18.35;;;;;;;11.48;59.32;99982.49;127328;1104;100954;-83
2021/05/01 08:28:21;;;;;;;26.48;20.90;;;;;;;11.45;59.13;99974.79;127377;1104;100825;-83
2021/05/01 08:31:07;;;;;;;27.35;23.65;;;;;;;11.42;59.33;99980.98;127588;1104;100950;-83
2021/05/01 08:33:54;;;;;;;30.77;26.13;;;;;;;11.48;59.67;99972.05;127609;1104;101190;-83
2021/05/01 08:36:41;;;;;;;;;;;;;;;11.56;59.92;99962.16;127596;1104;101523;-83
2021/05/01 08:39:27;;;;;;;29.37;22.30;;;;;;;11.63;59.87;99966.20;127528;1104;100868;-83
2021/05/01 08:42:14;;;;;;;24.03;20.07;;;;;;;11.62;59.46;99963.66;127606;1105;100806;-83
2021/05/01 08:45:04;;;;;;;21.93;19.33;;;;;;;11.66;59.40;99957.39;127391;1105;100805;-83
2021/05/01 08:47:51;;;;;;;23.57;20.57;;;;;;;11.69;59.38;99959.91;127592;1104;100664;-83
2021/05/01 08:50:45;;;;;;;24.47;18.47;;;;;;;11.74;59.58;99960.55;127593;1104;100774;-83
2021/05/01 08:53:34;;;;;;;19.37;16.60;;;;;;;11.78;59.21;99960.39;127576;1104;100819;-83
2021/05/01 08:56:21;;;;;;;17.33;15.33;;;;;;;11.79;59.38;99954.25;127601;1104;100820;-83
2021/05/01 08:59:08;;;;;;;15.68;13.48;;;;;;;11.77;59.36;99955.20;127563;1104;101479;-83
2021/05/01 09:01:55;;;;;;;18.30;16.35;;;;;;;11.76;59.48;99961.34;127574;1104;100732;-83
2021/05/01 09:04:49;;;;;;;20.30;17.67;;;;;;;11.81;59.78;99967.25;127636;1104;101732;-83
2021/05/01 09:07:46;;;;;;;25.37;20.30;;;;;;;11.93;59.97;99977.20;127582;1104;100851;-83
2021/05/01 09:10:41;;;;;;;23.23;19.60;;;;;;;12.03;59.96;99973.30;127589;1104;100783;-83
2021/05/01 09:13:28;;;;;;;20.67;17.57;;;;;;;12.06;59.25;99978.39;127582;1104;100638;-83
2021/05/01 09:16:16;;;;;;;28.55;20.95;;;;;;;12.03;59.31;99983.75;127583;1104;100863;-83
2021/05/01 09:19:02;;;;;;;23.20;19.60;;;;;;;12.01;59.07;100000.39;127590;1104;101510;-83
2021/05/01 09:22:00;;;;;;;18.93;16.93;;;;;;;11.93;58.81;99995.49;127592;1105;100753;-83
2021/05/01 09:24:47;;;;;;;19.03;16.68;;;;;;;11.92;59.36;99999.02;127605;1104;100942;-83
2021/05/01 09:27:34;;;;;;;18.57;15.90;;;;;;;11.92;59.34;100001.64;127603;1104;100925;-83
2021/05/01 09:30:21;;;;;;;;;;;;;;;11.91;59.47;100001.70;127595;1104;100838;-83
2021/05/01 09:33:38;;;;;;;20.43;14.80;;;;;;;11.83;59.27;100002.00;127558;1104;101590;-83
2021/05/01 09:36:25;;;;;;;16.13;12.97;;;;;;;11.75;59.58;99998.83;127517;1104;101044;-83
2021/05/01 09:39:16;;;;;;;15.13;12.48;;;;;;;11.73;59.70;99998.05;127588;1104;100893;-83
2021/05/01 09:42:15;;;;;;;13.23;10.37;;;;;;;11.75;60.03;99998.83;127612;1105;100745;-83
2021/05/01 09:45:18;;;;;;;12.47;10.87;;;;;;;11.75;60.12;99990.99;127620;1105;100707;-83
2021/05/01 09:48:32;;;;;;;12.77;11.30;;;;;;;11.72;60.12;99993.73;127571;1104;101979;-83
2021/05/01 09:51:19;;;;;;;16.97;12.43;;;;;;;11.74;60.26;99991.91;127539;1104;101134;-83
2021/05/01 09:54:06;;;;;;;13.38;11.85;;;;;;;11.72;60.17;99981.52;127590;1104;100802;-83
2021/05/01 09:56:55;;;;;;;14.47;11.70;;;;;;;11.72;60.33;99978.06;127616;1104;100733;-83
2021/05/01 09:59:54;;;;;;;12.33;10.57;;;;;;;11.71;60.25;99976.36;127597;1104;101933;-83
2021/05/01 10:02:43;;;;;;;13.23;11.13;;;;;;;11.70;60.44;99970.29;127584;1104;101597;-82
2021/05/01 10:05:30;;;;;;;14.00;12.00;;;;;;;11.75;61.08;99973.55;127535;1104;100835;-82
2021/05/01 10:08:19;;;;;;;13.23;11.33;;;;;;;11.83;61.06;99972.41;127614;1104;100759;-83
2021/05/01 10:11:13;;;;;;;13.27;11.87;;;;;;;11.88;60.91;99976.55;127602;1104;100861;-82
2021/05/01 10:14:07;;;;;;;14.63;12.23;;;;;;;11.94;60.99;99973.67;127608;1104;100711;-82
2021/05/01 10:16:54;;;;;;;13.13;11.73;;;;;;;12.00;60.87;99981.24;127599;1104;101538;-82
2021/05/01 10:19:51;;;;;;;15.30;11.20;;;;;;;12.05;60.69;99987.15;127566;1104;100842;-82
2021/05/01 10:22:44;;;;;;;15.23;10.87;;;;;;;12.13;60.97;99988.58;127594;1104;100801;-83
2021/05/01 10:25:32;;;;;;;12.17;10.47;;;;;;;12.14;60.45;99985.05;127551;1104;100789;-82
2021/05/01 10:28:20;;;;;;;14.30;11.40;;;;;;;12.22;60.73;99993.42;127621;1104;100783;-82
2021/05/01 10:31:11;;;;;;;12.67;10.87;;;;;;;12.30;60.66;99993.93;127611;1104;100820;-82
2021/05/01 10:33:58;;;;;;;16.07;11.43;;;;;;;12.34;60.01;99992.88;127577;1104;100632;-82
2021/05/01 10:36:46;;;;;;;13.93;10.85;;;;;;;12.38;60.21;99994.44;127605;1104;100780;-82
2021/05/01 10:39:44;;;;;;;12.33;11.03;;;;;;;12.42;59.94;99996.02;127582;1104;101117;-82
2021/05/01 10:42:32;;;;;;;14.10;11.17;;;;;;;12.43;60.18;99992.49;127628;1104;101637;-82
2021/05/01 10:45:27;;;;;;;12.63;11.07;;;;;;;12.50;60.17;99977.37;127581;1104;100912;-83
2021/05/01 10:48:14;;;;;;;14.60;11.03;;;;;;;12.55;59.73;99976.23;127603;1104;100788;-82
2021/05/01 10:51:07;;;;;;;15.30;12.00;;;;;;;12.63;59.98;99979.38;127553;1104;100777;-82
2021/05/01 10:54:19;;;;;;;13.63;11.73;;;;;;;12.74;59.97;99981.49;127594;1104;100749;-82
2021/05/01 10:57:13;;;;;;;14.47;11.57;;;;;;;12.88;59.79;99984.34;127575;1104;100785;-82
2021/05/01 11:00:12;;;;;;;12.13;10.60;;;;;;;12.94;59.53;99984.08;127605;1104;101601;-82
2021/05/01 11:03:00;;;;;;;12.53;10.77;;;;;;;12.93;59.03;99981.53;127605;1104;100951;-82
2021/05/01 11:05:53;;;;;;;11.60;10.10;;;;;;;12.90;59.19;99981.65;127584;1104;100783;-83
2021/05/01 11:08:50;;;;;;;13.17;10.30;;;;;;;12.85;59.18;99970.55;127605;1104;100708;-82
2021/05/01 11:11:40;;;;;;;12.83;10.23;;;;;;;12.84;59.32;99972.32;127637;1104;100773;-82
2021/05/01 11:14:31;;;;;;;11.73;9.93;;;;;;;12.85;59.23;99960.93;127595;1104;100787;-83
2021/05/01 11:17:32;;;;;;;11.80;9.93;;;;;;;12.92;59.03;99957.09;127525;1104;101054;-84
2021/05/01 11:20:22;;;;;;;11.17;9.93;;;;;;;13.02;58.54;99954.91;127590;1104;100757;-83
2021/05/01 11:23:15;;;;;;;12.03;10.40;;;;;;;13.05;58.23;99957.38;127637;1104;100722;-83
2021/05/01 11:26:05;;;;;;;14.77;10.80;;;;;;;13.02;58.22;99952.30;127600;1104;100784;-83
2021/05/01 11:28:52;;;;;;;11.80;10.23;;;;;;;12.88;58.24;99945.08;127574;1104;101438;-83
2021/05/01 11:31:44;;;;;;;10.65;9.55;;;;;;;12.77;58.11;99939.51;127585;1104;100783;-83
2021/05/01 11:34:32;;;;;;;11.10;9.67;;;;;;;12.58;58.29;99943.88;127601;1104;101051;-83
2021/05/01 11:37:26;;;;;;;12.10;10.03;;;;;;;12.49;58.58;99945.13;127544;1104;100833;-83
2021/05/01 11:40:14;;;;;;;11.87;10.33;;;;;;;12.38;59.12;99936.90;127590;1104;100797;-83
2021/05/01 11:43:02;;;;;;;13.07;10.57;;;;;;;12.32;59.28;99942.41;127574;1104;101603;-83
2021/05/01 11:46:01;;;;;;;11.70;10.27;;;;;;;12.21;59.24;99939.41;127547;1105;100814;-83
2021/05/01 11:48:48;;;;;;;20.17;15.50;;;;;;;12.09;59.75;99928.59;127578;1105;101030;-82
2021/05/01 11:51:53;;;;;;;15.45;12.63;;;;;;;11.95;59.73;99925.71;127596;1104;100680;-83
2021/05/01 11:54:52;;;;;;;13.10;10.80;;;;;;;11.79;60.09;99922.05;127611;1104;101074;-82
2021/05/01 11:57:47;;;;;;;15.73;11.33;;;;;;;11.68;60.42;99913.80;127597;1104;101561;-83
2021/05/01 12:00:39;;;;;;;12.90;10.90;;;;;;;11.58;60.98;99907.25;127513;1104;101003;-82
2021/05/01 12:03:26;;;;;;;14.23;11.60;;;;;;;11.54;61.70;99901.30;127584;1104;101086;-82
2021/05/01 12:06:25;;;;;;;12.53;11.07;;;;;;;11.55;61.92;99896.93;127616;1104;100692;-82
2021/05/01 12:09:19;;;;;;;14.23;11.13;;;;;;;11.49;62.27;99904.12;127611;1104;100720;-82
2021/05/01 12:12:10;;;;;;;13.38;11.68;;;;;;;11.48;62.30;99905.00;127572;1104;101459;-83
2021/05/01 12:15:02;;;;;;;15.07;11.33;;;;;;;11.45;62.65;99906.89;127566;1105;100814;-82
2021/05/01 12:17:51;;;;;;;12.83;11.03;;;;;;;11.46;63.01;99909.44;127625;1105;100781;-82
2021/05/01 12:20:39;;;;;;;16.97;11.97;;;;;;;11.45;62.80;99906.89;127587;1104;100748;-82
2021/05/01 12:23:55;;;;;;;14.60;12.47;;;;;;;11.44;62.83;99906.05;127598;1104;101018;-82
2021/05/01 12:26:42;;;;;;;15.77;12.53;;;;;;;11.42;62.79;99900.03;127600;1104;102012;-83
2021/05/01 12:29:32;;;;;;;16.53;12.18;;;;;;;11.44;63.39;99900.82;127569;1104;100676;-82
2021/05/01 12:32:26;;;;;;;12.93;10.90;;;;;;;11.47;63.36;99905.91;127613;1104;100836;-82
2021/05/01 12:35:13;;;;;;;12.33;10.63;;;;;;;11.47;62.92;99899.84;127614;1104;100703;-82
2021/05/01 12:38:04;;;;;;;12.65;11.25;;;;;;;11.45;63.17;99902.52;127590;1104;100802;-82
2021/05/01 12:41:09;;;;;;;14.03;11.10;;;;;;;11.44;63.23;99898.21;127582;1104;101520;-81
2021/05/01 12:43:56;;;;;;;17.00;11.43;;;;;;;11.40;63.44;99894.03;127595;1104;101820;-83
2021/05/01 12:46:44;;;;;;;16.20;13.00;;;;;;;11.38;63.36;99895.02;127621;1104;101007;-82
2021/05/01 12:49:35;;;;;;;17.10;12.40;;;;;;;11.27;63.12;99891.98;127575;1104;100689;-82
2021/05/01 12:52:22;;;;;;;14.05;11.38;;;;;;;11.18;63.34;99894.06;127606;1105;100811;-82
2021/05/01 12:55:09;;;;;;;15.10;10.47;;;;;;;11.11;63.80;99896.96;127551;1104;101531;-82
2021/05/01 12:57:55;;;;;;;;;;;;;;;11.05;63.82;99905.05;127600;1104;100724;-81
2021/05/01 13:00:42;;;;;;;14.30;10.17;;;;;;;10.97;64.43;99909.73;127585;1105;100801;-81
2021/05/01 13:03:29;;;;;;;13.70;11.37;;;;;;;10.96;64.86;99915.86;127595;1104;100728;-81
2021/05/01 13:06:16;;;;;;;13.73;10.87;;;;;;;10.94;64.25;99909.82;127591;1104;101056;-81
2021/05/01 13:09:10;;;;;;;16.10;12.27;;;;;;;10.92;64.38;99915.09;127574;1104;101809;-82
2021/05/01 13:12:07;;;;;;;12.13;10.80;;;;;;;10.96;64.84;99918.47;127560;1104;100906;-83
2021/05/01 13:14:56;;;;;;;12.15;10.83;;;;;;;11.00;64.93;99933.09;127597;1104;100978;-83
2021/05/01 13:17:43;;;;;;;14.27;10.67;;;;;;;11.00;65.10;99933.09;127583;1104;101809;-83
2021/05/01 13:20:30;;;;;;;15.73;11.60;;;;;;;10.99;64.83;99921.80;127597;1105;100819;-82
2021/05/01 13:23:17;;;;;;;14.45;11.55;;;;;;;11.02;65.01;99918.22;127592;1104;100806;-82
2021/05/01 13:26:13;;;;;;;12.63;10.53;;;;;;;11.02;65.23;99923.44;127565;1104;100795;-82
2021/05/01 13:28:59;;;;;;;13.27;10.30;;;;;;;10.99;65.27;99920.95;127579;1104;100734;-84
2021/05/01 13:31:50;;;;;;;13.05;10.98;;;;;;;11.00;65.55;99918.28;127566;1105;100954;-84
2021/05/01 13:34:39;;;;;;;12.63;10.50;;;;;;;11.02;65.59;99926.89;127601;1104;100663;-84
2021/05/01 13:37:26;;;;;;;;;;;;;;;11.02;65.57;99920.83;127620;1105;100702;-84
2021/05/01 13:40:26;;;;;;;12.03;10.20;;;;;;;10.96;65.21;99923.69;127588;1104;100927;-83
2021/05/01 13:43:12;;;;;;;11.87;9.87;;;;;;;10.93;65.50;99936.82;127586;1104;100756;-84
2021/05/01 13:46:06;;;;;;;26.93;19.47;;;;;;;10.93;65.62;99931.61;127612;1105;100717;-84
2021/05/01 13:48:53;;;;;;;19.30;14.97;;;;;;;10.98;65.88;99933.15;127601;1104;100744;-84
2021/05/01 13:51:40;;;;;;;16.13;12.25;;;;;;;11.02;66.00;99924.28;127576;1105;101181;-84
2021/05/01 13:54:27;;;;;;;13.97;12.20;;;;;;;11.05;66.22;99923.31;127548;1104;100808;-84
2021/05/01 13:57:13;;;;;;;13.50;12.03;;;;;;;11.03;65.92;99920.77;127621;1104;101107;-84
2021/05/01 14:00:01;;;;;;;15.47;12.90;;;;;;;11.04;66.01;99919.85;127575;1105;101139;-84
2021/05/01 14:02:57;;;;;;;16.30;12.53;;;;;;;11.08;65.90;99921.42;127613;1104;101043;-83
2021/05/01 14:05:46;;;;;;;16.37;13.87;;;;;;;11.13;65.76;99923.84;127573;1104;101840;-84
2021/05/01 14:08:33;;;;;;;19.03;13.97;;;;;;;11.11;65.75;99915.23;127554;1104;100828;-84
2021/05/01 14:11:22;;;;;;;16.47;14.27;;;;;;;11.14;65.83;99917.74;127580;1104;101059;-84
2021/05/01 14:14:08;;;;;;;16.27;13.70;;;;;;;11.13;65.88;99908.19;127587;1104;100774;-83
2021/05/01 14:17:07;;;;;;;16.10;13.90;;;;;;;11.14;66.04;99909.91;127571;1104;101052;-83
2021/05/01 14:20:01;;;;;;;23.40;19.23;;;;;;;11.14;66.25;99915.98;127597;1104;101523;-83
2021/05/01 14:22:49;;;;;;;17.27;14.43;;;;;;;11.15;66.11;99914.22;127600;1104;100863;-83
2021/05/01 14:25:36;;;;;;;17.83;14.80;;;;;;;11.15;66.25;99903.78;127568;1104;100738;-83
2021/05/01 14:28:30;;;;;;;16.23;13.75;;;;;;;11.13;66.46;99908.19;127614;1104;101547;-84
2021/05/01 14:31:22;;;;;;;18.80;13.80;;;;;;;11.09;66.32;99907.46;127620;1104;100970;-84
2021/05/01 14:34:10;;;;;;;15.57;13.27;;;;;;;11.10;66.73;99906.55;127607;1104;101037;-83
2021/05/01 14:36:57;;;;;;;;;;;;;;;11.10;66.71;99890.89;127590;1104;101073;-84
2021/05/01 14:39:43;;;;;;;18.53;13.77;;;;;;;11.09;66.48;99889.19;127579;1104;101053;-83
2021/05/01 14:42:30;;;;;;;18.70;14.20;;;;;;;11.11;66.54;99889.13;127572;1104;100810;-83
2021/05/01 14:45:23;;;;;;;18.13;14.00;;;;;;;11.12;66.33;99880.39;127593;1104;100773;-84
2021/05/01 14:48:14;;;;;;;18.80;14.83;;;;;;;11.14;66.76;99871.61;127590;1105;101812;-84
2021/05/01 14:51:07;;;;;;;19.20;13.53;;;;;;;11.18;66.66;99867.11;127560;1104;100806;-83
2021/05/01 14:54:21;;;;;;;17.07;13.57;;;;;;;11.17;66.41;99870.63;127578;1104;100815;-84
2021/05/01 14:57:24;;;;;;;17.47;13.70;;;;;;;11.18;66.71;99861.89;127593;1104;100798;-84
2021/05/01 15:00:12;;;;;;;18.10;13.70;;;;;;;11.20;66.92;99866.13;127570;1104;101723;-84
2021/05/01 15:02:59;;;;;;;17.27;14.43;;;;;;;11.27;66.90;99860.65;127557;1104;100863;-83
2021/05/01 15:05:46;;;;;;;18.80;15.53;;;;;;;11.32;66.79;99870.02;127596;1104;100671;-84
2021/05/01 15:08:32;;;;;;;17.07;14.77;;;;;;;11.37;66.86;99875.89;127614;1104;100778;-84
2021/05/01 15:11:19;;;;;;;18.03;14.90;;;;;;;11.38;66.56;99863.68;127613;1104;101039;-84
2021/05/01 15:14:20;;;;;;;16.90;13.75;;;;;;;11.37;66.55;99873.27;127620;1104;100806;-84
2021/05/01 15:17:07;;;;;;;16.40;14.17;;;;;;;11.36;66.74;99868.97;127611;1104;102004;-84
2021/05/01 15:20:17;;;;;;;17.30;13.97;;;;;;;11.34;66.58;99862.96;127562;1104;101079;-83
2021/05/01 15:23:08;;;;;;;;;;;;;;;11.30;66.86;99860.52;127604;1104;101096;-83
2021/05/01 15:25:56;;;;;;;17.90;12.80;;;;;;;11.27;66.91;99866.72;127601;1104;100801;-83
2021/05/01 15:28:43;;;;;;;14.40;12.90;;;;;;;11.27;66.85;99861.50;127606;1104;100743;-83
2021/05/01 15:31:30;;;;;;;16.23;13.40;;;;;;;11.25;66.67;99849.42;127554;1104;100729;-83
2021/05/01 15:34:17;;;;;;;16.75;14.00;;;;;;;11.17;66.83;99850.60;127570;1104;101016;-83
2021/05/01 15:37:04;;;;;;;16.83;13.93;;;;;;;11.14;66.72;99836.83;127601;1104;100792;-84
2021/05/01 15:39:51;;;;;;;17.17;15.00;;;;;;;11.14;66.93;99840.29;127612;1105;100742;-83
2021/05/01 15:42:39;;;;;;;16.88;13.10;;;;;;;11.12;66.89;99846.45;127596;1104;100815;-84
2021/05/01 15:45:26;;;;;;;17.40;14.15;;;;;;;11.09;66.58;99846.59;127585;1104;100804;-84
2021/05/01 15:48:14;;;;;;;25.10;17.60;;;;;;;11.07;66.56;99838.82;127548;1104;100824;-84
2021/05/01 15:51:01;;;;;;;16.83;14.18;;;;;;;11.06;66.76;99828.45;127578;1104;100817;-84
2021/05/01 15:53:47;;;;;;;33.95;22.45;;;;;;;11.10;66.89;99822.19;127557;1104;100862;-83
2021/05/01 15:56:34;;;;;;;30.97;23.87;;;;;;;11.12;66.99;99829.03;127571;1104;101277;-83
2021/05/01 15:59:20;;;;;;;21.33;18.10;;;;;;;11.12;67.22;99830.80;127577;1104;101570;-83
2021/05/01 16:02:07;;;;;;;19.75;15.90;;;;;;;11.05;66.88;99829.36;127593;1104;100719;-83
2021/05/01 16:04:55;;;;;;;19.40;15.70;;;;;;;11.00;67.17;99826.95;127599;1105;100805;-83
2021/05/01 16:07:42;;;;;;;18.40;15.37;;;;;;;10.95;67.24;99833.23;127596;1104;100767;-83
2021/05/01 16:10:30;;;;;;;19.53;16.87;;;;;;;10.91;67.33;99827.30;127605;1104;100861;-83
2021/05/01 16:13:16;;;;;;;20.95;18.03;;;;;;;10.87;67.30;99834.41;127405;1104;101584;-84
2021/05/01 16:16:04;;;;;;;21.48;19.15;;;;;;;10.82;67.47;99823.31;127567;1105;100972;-83
2021/05/01 16:18:50;;;;;;;;;;;;;;;10.79;67.57;99823.45;127611;1104;100690;-83
2021/05/01 16:21:41;;;;;;;24.07;19.73;;;;;;;10.70;67.75;99823.80;127574;1104;100817;-83
2021/05/01 16:24:28;;;;;;;27.30;22.90;;;;;;;10.63;67.76;99821.50;127622;1105;100769;-83
2021/05/01 16:27:16;;;;;;;29.67;24.03;;;;;;;10.57;67.90;99812.13;127593;1104;101484;-84
2021/05/01 16:30:05;;;;;;;27.07;22.23;;;;;;;10.55;68.06;99803.52;127567;1104;100978;-83
2021/05/01 16:32:52;;;;;;;26.33;21.67;;;;;;;10.54;68.22;99794.85;127620;1104;100761;-83
2021/05/01 16:35:39;;;;;;;;;;;;;;;10.55;68.60;99788.73;127603;1104;100718;-83
2021/05/01 16:38:26;;;;;;;25.23;19.43;;;;;;;10.53;68.25;99789.70;127578;1104;100699;-83
2021/05/01 16:41:12;;;;;;;25.00;21.77;;;;;;;10.55;68.63;99800.92;127373;1105;101871;-83
2021/05/01 16:43:59;;;;;;;23.83;20.50;;;;;;;10.55;68.72;99804.38;127557;1104;101028;-83
2021/05/01 16:46:46;;;;;;;25.85;21.43;;;;;;;10.52;68.65;99806.25;127592;1104;103084;-83
2021/05/01 16:49:32;;;;;;;30.30;24.00;;;;;;;10.47;68.56;99810.80;127555;1104;100761;-82
2021/05/01 16:52:19;;;;;;;27.50;24.10;;;;;;;10.41;68.75;99816.23;127569;1104;100934;-83
2021/05/01 16:55:06;;;;;;;24.53;21.33;;;;;;;10.37;68.60;99814.66;127592;1104;101998;-83
2021/05/01 16:57:53;;;;;;;26.35;21.23;;;;;;;10.26;68.66;99815.94;127565;1104;101141;-83
2021/05/01 17:00:40;;;;;;;28.15;23.10;;;;;;;10.21;68.79;99812.63;127571;1104;102309;-83
2021/05/01 17:03:26;;;;;;;26.30;22.77;;;;;;;10.17;68.87;99811.02;127585;1104;101000;-83
2021/05/01 17:06:16;;;;;;;30.75;24.78;;;;;;;10.15;69.21;99818.05;127555;1104;100733;-83
2021/05/01 17:09:04;;;;;;;29.03;24.30;;;;;;;10.12;69.24;99817.31;127594;1104;101438;-83
2021/05/01 17:11:53;;;;;;;;;;;;;;;10.11;69.49;99807.80;127566;1104;100875;-83
2021/05/01 17:14:39;;;;;;;29.20;22.73;;;;;;;10.10;69.47;99817.38;127591;1104;100894;-83
2021/05/01 17:17:26;;;;;;;30.53;25.98;;;;;;;10.09;69.66;99807.86;127589;1104;100700;-83
2021/05/01 17:20:13;;;;;;;32.47;25.50;;;;;;;10.09;69.63;99814.83;127588;1104;100808;-83